PKWA TAF

81.3 °F / 27.4 °C
NE at 20 MPH
97%
80.6°F / 27.0 °C
29.83" (1010 mb)
10 mile(s)
overcast
2020.01.25 2040 UTC

PKWA TAF

2020/01/25 20:24
TAF
AMD PKWA 252013Z 2520/2618 06014G24KT P6SM VCSH SCT020 BKN060
TEMPO 2600/2604 5SM SHRA SCT016 BKN025